sensor_id;sensor_type;location;lat;lon;timestamp;temperature;humidity
79010;DHT22;73031;44.726;37.760;2024-01-30T00:00:38;4.34;67.26
79010;DHT22;73031;44.726;37.760;2024-01-30T00:01:39;4.36;67.29
79010;DHT22;73031;44.726;37.760;2024-01-30T00:02:41;4.36;67.23
79010;DHT22;73031;44.726;37.760;2024-01-30T00:03:44;4.36;67.15
79010;DHT22;73031;44.726;37.760;2024-01-30T00:04:45;4.36;67.20
79010;DHT22;73031;44.726;37.760;2024-01-30T00:05:46;4.34;67.31
79010;DHT22;73031;44.726;37.760;2024-01-30T00:06:48;4.39;67.41
79010;DHT22;73031;44.726;37.760;2024-01-30T00:07:50;4.34;67.32
79010;DHT22;73031;44.726;37.760;2024-01-30T00:08:51;4.34;67.28
79010;DHT22;73031;44.726;37.760;2024-01-30T00:09:52;4.33;67.33
79010;DHT22;73031;44.726;37.760;2024-01-30T00:10:54;4.32;67.21
79010;DHT22;73031;44.726;37.760;2024-01-30T00:11:55;4.33;67.23
79010;DHT22;73031;44.726;37.760;2024-01-30T00:12:57;4.34;67.22
79010;DHT22;73031;44.726;37.760;2024-01-30T00:13:58;4.33;67.00
79010;DHT22;73031;44.726;37.760;2024-01-30T00:14:59;4.32;67.12
79010;DHT22;73031;44.726;37.760;2024-01-30T00:16:01;4.32;67.17
79010;DHT22;73031;44.726;37.760;2024-01-30T00:17:02;4.36;67.21
79010;DHT22;73031;44.726;37.760;2024-01-30T00:18:04;4.34;67.07
79010;DHT22;73031;44.726;37.760;2024-01-30T00:19:05;4.29;67.07
79010;DHT22;73031;44.726;37.760;2024-01-30T00:20:06;4.30;67.01
79010;DHT22;73031;44.726;37.760;2024-01-30T00:21:09;4.32;66.89
79010;DHT22;73031;44.726;37.760;2024-01-30T00:22:11;4.30;67.12
79010;DHT22;73031;44.726;37.760;2024-01-30T00:23:13;4.28;67.19
79010;DHT22;73031;44.726;37.760;2024-01-30T00:24:14;4.28;67.19
79010;DHT22;73031;44.726;37.760;2024-01-30T00:25:15;4.30;67.16
79010;DHT22;73031;44.726;37.760;2024-01-30T00:26:17;4.29;67.22
79010;DHT22;73031;44.726;37.760;2024-01-30T00:27:18;4.30;67.21
79010;DHT22;73031;44.726;37.760;2024-01-30T00:28:19;4.29;67.14
79010;DHT22;73031;44.726;37.760;2024-01-30T00:29:21;4.32;67.21
79010;DHT22;73031;44.726;37.760;2024-01-30T00:30:23;4.29;67.08
79010;DHT22;73031;44.726;37.760;2024-01-30T00:31:25;4.32;67.18
79010;DHT22;73031;44.726;37.760;2024-01-30T00:32:27;4.32;67.14
79010;DHT22;73031;44.726;37.760;2024-01-30T00:33:28;4.30;67.09
79010;DHT22;73031;44.726;37.760;2024-01-30T00:34:29;4.28;67.18
79010;DHT22;73031;44.726;37.760;2024-01-30T00:35:30;4.29;67.37
79010;DHT22;73031;44.726;37.760;2024-01-30T00:36:32;4.29;67.27
79010;DHT22;73031;44.726;37.760;2024-01-30T00:37:35;4.26;67.29
79010;DHT22;73031;44.726;37.760;2024-01-30T00:38:36;4.28;67.30
79010;DHT22;73031;44.726;37.760;2024-01-30T00:40:03;4.29;67.42
79010;DHT22;73031;44.726;37.760;2024-01-30T00:41:04;4.28;67.34
79010;DHT22;73031;44.726;37.760;2024-01-30T00:42:06;4.26;67.36
79010;DHT22;73031;44.726;37.760;2024-01-30T00:43:07;4.26;67.15
79010;DHT22;73031;44.726;37.760;2024-01-30T00:44:08;4.28;67.32
79010;DHT22;73031;44.726;37.760;2024-01-30T00:45:16;4.26;67.43
79010;DHT22;73031;44.726;37.760;2024-01-30T00:46:17;4.28;67.37
79010;DHT22;73031;44.726;37.760;2024-01-30T00:47:18;4.29;67.16
79010;DHT22;73031;44.726;37.760;2024-01-30T00:48:20;4.29;67.35
79010;DHT22;73031;44.726;37.760;2024-01-30T00:49:22;4.28;67.33
79010;DHT22;73031;44.726;37.760;2024-01-30T00:50:23;4.26;67.42
79010;DHT22;73031;44.726;37.760;2024-01-30T00:51:24;4.28;67.51
79010;DHT22;73031;44.726;37.760;2024-01-30T00:52:25;4.28;67.51
79010;DHT22;73031;44.726;37.760;2024-01-30T00:53:27;4.29;67.32
79010;DHT22;73031;44.726;37.760;2024-01-30T00:54:29;4.32;67.49
79010;DHT22;73031;44.726;37.760;2024-01-30T00:55:30;4.28;67.48
79010;DHT22;73031;44.726;37.760;2024-01-30T00:56:32;4.28;67.42
79010;DHT22;73031;44.726;37.760;2024-01-30T00:57:34;4.28;67.56
79010;DHT22;73031;44.726;37.760;2024-01-30T00:58:35;4.29;67.50
79010;DHT22;73031;44.726;37.760;2024-01-30T00:59:36;4.24;67.59
79010;DHT22;73031;44.726;37.760;2024-01-30T01:00:38;4.28;67.66
79010;DHT22;73031;44.726;37.760;2024-01-30T01:01:40;4.29;67.47
79010;DHT22;73031;44.726;37.760;2024-01-30T01:02:41;4.29;67.46
79010;DHT22;73031;44.726;37.760;2024-01-30T01:03:42;4.29;67.50
79010;DHT22;73031;44.726;37.760;2024-01-30T01:04:44;4.28;67.54
79010;DHT22;73031;44.726;37.760;2024-01-30T01:05:46;4.29;67.37
79010;DHT22;73031;44.726;37.760;2024-01-30T01:06:47;4.30;67.29
79010;DHT22;73031;44.726;37.760;2024-01-30T01:07:48;4.30;67.33
79010;DHT22;73031;44.726;37.760;2024-01-30T01:08:50;4.30;67.39
79010;DHT22;73031;44.726;37.760;2024-01-30T01:09:51;4.26;67.39
79010;DHT22;73031;44.726;37.760;2024-01-30T01:10:52;4.26;67.49
79010;DHT22;73031;44.726;37.760;2024-01-30T01:11:54;4.26;67.37
79010;DHT22;73031;44.726;37.760;2024-01-30T01:12:55;4.24;67.43
79010;DHT22;73031;44.726;37.760;2024-01-30T01:13:56;4.24;67.57
79010;DHT22;73031;44.726;37.760;2024-01-30T01:14:58;4.26;67.41
79010;DHT22;73031;44.726;37.760;2024-01-30T01:15:59;4.28;67.32
79010;DHT22;73031;44.726;37.760;2024-01-30T01:17:00;4.28;67.48
79010;DHT22;73031;44.726;37.760;2024-01-30T01:18:01;4.28;67.38
79010;DHT22;73031;44.726;37.760;2024-01-30T01:19:03;4.26;67.47
79010;DHT22;73031;44.726;37.760;2024-01-30T01:20:05;4.28;67.47
79010;DHT22;73031;44.726;37.760;2024-01-30T01:21:07;4.28;67.40
79010;DHT22;73031;44.726;37.760;2024-01-30T01:22:08;4.29;67.50
79010;DHT22;73031;44.726;37.760;2024-01-30T01:23:10;4.26;67.48
79010;DHT22;73031;44.726;37.760;2024-01-30T01:24:11;4.26;67.44
79010;DHT22;73031;44.726;37.760;2024-01-30T01:25:12;4.26;67.48
79010;DHT22;73031;44.726;37.760;2024-01-30T01:26:14;4.28;67.29
79010;DHT22;73031;44.726;37.760;2024-01-30T01:27:15;4.26;67.35
79010;DHT22;73031;44.726;37.760;2024-01-30T01:28:17;4.24;67.31
79010;DHT22;73031;44.726;37.760;2024-01-30T01:29:18;4.26;67.26
79010;DHT22;73031;44.726;37.760;2024-01-30T01:30:19;4.24;67.47
79010;DHT22;73031;44.726;37.760;2024-01-30T01:31:22;4.24;67.34
79010;DHT22;73031;44.726;37.760;2024-01-30T01:32:25;4.22;67.36
79010;DHT22;73031;44.726;37.760;2024-01-30T01:33:27;4.26;67.47
79010;DHT22;73031;44.726;37.760;2024-01-30T01:34:28;4.23;67.48
79010;DHT22;73031;44.726;37.760;2024-01-30T01:35:29;4.26;67.44
79010;DHT22;73031;44.726;37.760;2024-01-30T01:36:31;4.26;67.44
79010;DHT22;73031;44.726;37.760;2024-01-30T01:37:32;4.26;67.34
79010;DHT22;73031;44.726;37.760;2024-01-30T01:38:33;4.24;67.41
79010;DHT22;73031;44.726;37.760;2024-01-30T01:39:35;4.22;67.50
79010;DHT22;73031;44.726;37.760;2024-01-30T01:40:36;4.28;67.41
79010;DHT22;73031;44.726;37.760;2024-01-30T01:41:40;4.23;67.42
79010;DHT22;73031;44.726;37.760;2024-01-30T01:42:42;4.23;67.43
79010;DHT22;73031;44.726;37.760;2024-01-30T01:43:43;4.24;67.55
79010;DHT22;73031;44.726;37.760;2024-01-30T01:44:44;4.23;67.62
79010;DHT22;73031;44.726;37.760;2024-01-30T01:45:46;4.26;67.58
79010;DHT22;73031;44.726;37.760;2024-01-30T01:46:47;4.23;67.55
79010;DHT22;73031;44.726;37.760;2024-01-30T01:47:51;4.24;67.59
79010;DHT22;73031;44.726;37.760;2024-01-30T01:48:52;4.22;67.55
79010;DHT22;73031;44.726;37.760;2024-01-30T01:49:54;4.26;67.57
79010;DHT22;73031;44.726;37.760;2024-01-30T01:50:56;4.24;67.56
79010;DHT22;73031;44.726;37.760;2024-01-30T01:51:59;4.23;67.53
79010;DHT22;73031;44.726;37.760;2024-01-30T01:53:01;4.24;67.65
79010;DHT22;73031;44.726;37.760;2024-01-30T01:54:04;4.24;67.65
79010;DHT22;73031;44.726;37.760;2024-01-30T01:55:08;4.26;67.62
79010;DHT22;73031;44.726;37.760;2024-01-30T01:56:10;4.28;67.53
79010;DHT22;73031;44.726;37.760;2024-01-30T01:57:12;4.26;67.60
79010;DHT22;73031;44.726;37.760;2024-01-30T01:58:13;4.24;67.58
79010;DHT22;73031;44.726;37.760;2024-01-30T01:59:15;4.24;67.65
79010;DHT22;73031;44.726;37.760;2024-01-30T02:00:18;4.26;67.62
79010;DHT22;73031;44.726;37.760;2024-01-30T02:01:20;4.24;67.58
79010;DHT22;73031;44.726;37.760;2024-01-30T02:02:23;4.24;67.62
79010;DHT22;73031;44.726;37.760;2024-01-30T02:03:25;4.26;67.67
79010;DHT22;73031;44.726;37.760;2024-01-30T02:04:27;4.23;67.57
79010;DHT22;73031;44.726;37.760;2024-01-30T02:05:28;4.26;67.53
79010;DHT22;73031;44.726;37.760;2024-01-30T02:06:29;4.23;67.49
79010;DHT22;73031;44.726;37.760;2024-01-30T02:07:31;4.23;67.51
79010;DHT22;73031;44.726;37.760;2024-01-30T02:08:32;4.20;67.56
79010;DHT22;73031;44.726;37.760;2024-01-30T02:09:34;4.23;67.45
79010;DHT22;73031;44.726;37.760;2024-01-30T02:10:35;4.22;67.41
79010;DHT22;73031;44.726;37.760;2024-01-30T02:11:37;4.22;67.33
79010;DHT22;73031;44.726;37.760;2024-01-30T02:12:40;4.23;67.25
79010;DHT22;73031;44.726;37.760;2024-01-30T02:13:41;4.20;67.50
79010;DHT22;73031;44.726;37.760;2024-01-30T02:14:46;4.23;67.42
79010;DHT22;73031;44.726;37.760;2024-01-30T02:15:51;4.22;67.34
79010;DHT22;73031;44.726;37.760;2024-01-30T02:16:52;4.20;67.36
79010;DHT22;73031;44.726;37.760;2024-01-30T02:17:54;4.26;67.34
79010;DHT22;73031;44.726;37.760;2024-01-30T02:18:55;4.20;67.15
79010;DHT22;73031;44.726;37.760;2024-01-30T02:19:56;4.20;67.10
79010;DHT22;73031;44.726;37.760;2024-01-30T02:20:58;4.20;67.10
79010;DHT22;73031;44.726;37.760;2024-01-30T02:22:02;4.20;67.09
79010;DHT22;73031;44.726;37.760;2024-01-30T02:23:04;4.16;67.12
79010;DHT22;73031;44.726;37.760;2024-01-30T02:24:06;4.16;67.13
79010;DHT22;73031;44.726;37.760;2024-01-30T02:25:08;4.16;67.02
79010;DHT22;73031;44.726;37.760;2024-01-30T02:26:09;4.17;66.96
79010;DHT22;73031;44.726;37.760;2024-01-30T02:27:10;4.16;67.00
79010;DHT22;73031;44.726;37.760;2024-01-30T02:28:12;4.16;66.97
79010;DHT22;73031;44.726;37.760;2024-01-30T02:29:14;4.15;67.02
79010;DHT22;73031;44.726;37.760;2024-01-30T02:30:15;4.13;67.07
79010;DHT22;73031;44.726;37.760;2024-01-30T02:31:16;4.12;67.07
79010;DHT22;73031;44.726;37.760;2024-01-30T02:32:18;4.13;66.98
79010;DHT22;73031;44.726;37.760;2024-01-30T02:33:19;4.13;67.12
79010;DHT22;73031;44.726;37.760;2024-01-30T02:34:23;4.17;67.37
79010;DHT22;73031;44.726;37.760;2024-01-30T02:35:24;4.13;67.47
79010;DHT22;73031;44.726;37.760;2024-01-30T02:36:26;4.16;67.37
79010;DHT22;73031;44.726;37.760;2024-01-30T02:37:27;4.16;67.34
79010;DHT22;73031;44.726;37.760;2024-01-30T02:38:28;4.17;67.19
79010;DHT22;73031;44.726;37.760;2024-01-30T02:39:30;4.15;67.20
79010;DHT22;73031;44.726;37.760;2024-01-30T02:40:32;4.16;67.06
79010;DHT22;73031;44.726;37.760;2024-01-30T02:41:33;4.15;67.00
79010;DHT22;73031;44.726;37.760;2024-01-30T02:42:34;4.16;66.97
79010;DHT22;73031;44.726;37.760;2024-01-30T02:43:35;4.13;66.94
79010;DHT22;73031;44.726;37.760;2024-01-30T02:44:37;4.15;66.91
79010;DHT22;73031;44.726;37.760;2024-01-30T02:45:38;4.12;66.85
79010;DHT22;73031;44.726;37.760;2024-01-30T02:46:39;4.12;66.92
79010;DHT22;73031;44.726;37.760;2024-01-30T02:47:41;4.10;66.87
79010;DHT22;73031;44.726;37.760;2024-01-30T02:48:42;4.09;66.79
79010;DHT22;73031;44.726;37.760;2024-01-30T02:49:43;4.12;66.75
79010;DHT22;73031;44.726;37.760;2024-01-30T02:50:44;4.09;66.92
79010;DHT22;73031;44.726;37.760;2024-01-30T02:51:47;4.06;66.85
79010;DHT22;73031;44.726;37.760;2024-01-30T02:52:48;4.09;66.91
79010;DHT22;73031;44.726;37.760;2024-01-30T02:53:49;4.07;66.91
79010;DHT22;73031;44.726;37.760;2024-01-30T02:54:50;4.09;66.83
79010;DHT22;73031;44.726;37.760;2024-01-30T02:55:52;4.06;66.90
79010;DHT22;73031;44.726;37.760;2024-01-30T02:56:53;4.09;66.79
79010;DHT22;73031;44.726;37.760;2024-01-30T02:57:54;4.09;66.81
79010;DHT22;73031;44.726;37.760;2024-01-30T02:58:56;4.09;66.73
79010;DHT22;73031;44.726;37.760;2024-01-30T02:59:57;4.07;66.67
79010;DHT22;73031;44.726;37.760;2024-01-30T03:00:59;4.06;66.68
79010;DHT22;73031;44.726;37.760;2024-01-30T03:02:00;4.06;66.75
79010;DHT22;73031;44.726;37.760;2024-01-30T03:03:01;4.03;66.51
79010;DHT22;73031;44.726;37.760;2024-01-30T03:04:03;4.06;66.64
79010;DHT22;73031;44.726;37.760;2024-01-30T03:05:05;4.05;66.62
79010;DHT22;73031;44.726;37.760;2024-01-30T03:06:07;4.02;66.51
79010;DHT22;73031;44.726;37.760;2024-01-30T03:07:09;4.01;66.46
79010;DHT22;73031;44.726;37.760;2024-01-30T03:08:10;4.01;66.54
79010;DHT22;73031;44.726;37.760;2024-01-30T03:09:11;3.99;66.46
79010;DHT22;73031;44.726;37.760;2024-01-30T03:10:13;3.96;66.52
79010;DHT22;73031;44.726;37.760;2024-01-30T03:11:19;3.98;66.52
79010;DHT22;73031;44.726;37.760;2024-01-30T03:12:21;3.96;66.66
79010;DHT22;73031;44.726;37.760;2024-01-30T03:13:23;3.96;66.59
79010;DHT22;73031;44.726;37.760;2024-01-30T03:14:26;3.95;66.64
79010;DHT22;73031;44.726;37.760;2024-01-30T03:15:27;3.96;66.72
79010;DHT22;73031;44.726;37.760;2024-01-30T03:16:28;3.94;66.62
79010;DHT22;73031;44.726;37.760;2024-01-30T03:17:30;3.95;66.72
79010;DHT22;73031;44.726;37.760;2024-01-30T03:18:31;3.95;66.67
79010;DHT22;73031;44.726;37.760;2024-01-30T03:19:34;3.94;66.65
79010;DHT22;73031;44.726;37.760;2024-01-30T03:20:35;3.92;66.57
79010;DHT22;73031;44.726;37.760;2024-01-30T03:21:37;3.89;66.55
79010;DHT22;73031;44.726;37.760;2024-01-30T03:22:38;3.92;66.64
79010;DHT22;73031;44.726;37.760;2024-01-30T03:23:39;3.92;66.66
79010;DHT22;73031;44.726;37.760;2024-01-30T03:24:41;3.92;66.70
79010;DHT22;73031;44.726;37.760;2024-01-30T03:25:42;3.89;66.86
79010;DHT22;73031;44.726;37.760;2024-01-30T03:26:43;3.89;66.41
79010;DHT22;73031;44.726;37.760;2024-01-30T03:27:45;3.91;66.58
79010;DHT22;73031;44.726;37.760;2024-01-30T03:28:46;3.91;66.51
79010;DHT22;73031;44.726;37.760;2024-01-30T03:29:47;3.88;66.47
79010;DHT22;73031;44.726;37.760;2024-01-30T03:30:49;3.88;66.40
79010;DHT22;73031;44.726;37.760;2024-01-30T03:31:50;3.86;66.47
79010;DHT22;73031;44.726;37.760;2024-01-30T03:32:51;3.86;66.38
79010;DHT22;73031;44.726;37.760;2024-01-30T03:33:53;3.86;66.44
79010;DHT22;73031;44.726;37.760;2024-01-30T03:34:54;3.82;66.36
79010;DHT22;73031;44.726;37.760;2024-01-30T03:35:55;3.84;66.23
79010;DHT22;73031;44.726;37.760;2024-01-30T03:36:57;3.82;66.08
79010;DHT22;73031;44.726;37.760;2024-01-30T03:37:58;3.84;65.96
79010;DHT22;73031;44.726;37.760;2024-01-30T03:39:00;3.81;66.19
79010;DHT22;73031;44.726;37.760;2024-01-30T03:40:02;3.81;66.24
79010;DHT22;73031;44.726;37.760;2024-01-30T03:41:08;3.77;66.10
79010;DHT22;73031;44.726;37.760;2024-01-30T03:42:10;3.75;66.10
79010;DHT22;73031;44.726;37.760;2024-01-30T03:43:11;3.75;66.14
79010;DHT22;73031;44.726;37.760;2024-01-30T03:44:12;3.75;66.25
79010;DHT22;73031;44.726;37.760;2024-01-30T03:45:13;3.74;66.17
79010;DHT22;73031;44.726;37.760;2024-01-30T03:46:15;3.75;66.06
79010;DHT22;73031;44.726;37.760;2024-01-30T03:47:16;3.75;66.02
79010;DHT22;73031;44.726;37.760;2024-01-30T03:48:19;3.74;66.05
79010;DHT22;73031;44.726;37.760;2024-01-30T03:49:21;3.73;66.20
79010;DHT22;73031;44.726;37.760;2024-01-30T03:50:22;3.73;66.02
79010;DHT22;73031;44.726;37.760;2024-01-30T03:51:24;3.71;65.84
79010;DHT22;73031;44.726;37.760;2024-01-30T03:52:25;3.73;66.07
79010;DHT22;73031;44.726;37.760;2024-01-30T03:53:26;3.70;65.97
79010;DHT22;73031;44.726;37.760;2024-01-30T03:54:27;3.68;66.25
79010;DHT22;73031;44.726;37.760;2024-01-30T03:55:29;3.71;66.17
79010;DHT22;73031;44.726;37.760;2024-01-30T03:56:30;3.74;67.68
79010;DHT22;73031;44.726;37.760;2024-01-30T03:57:31;3.91;72.34
79010;DHT22;73031;44.726;37.760;2024-01-30T03:58:33;3.96;71.45
79010;DHT22;73031;44.726;37.760;2024-01-30T03:59:34;4.01;71.25
79010;DHT22;73031;44.726;37.760;2024-01-30T04:00:35;4.06;71.87
79010;DHT22;73031;44.726;37.760;2024-01-30T04:01:37;4.09;71.20
79010;DHT22;73031;44.726;37.760;2024-01-30T04:02:38;4.09;70.51
79010;DHT22;73031;44.726;37.760;2024-01-30T04:03:39;4.10;69.97
79010;DHT22;73031;44.726;37.760;2024-01-30T04:04:40;4.06;69.76
79010;DHT22;73031;44.726;37.760;2024-01-30T04:05:42;4.09;69.91
79010;DHT22;73031;44.726;37.760;2024-01-30T04:06:44;4.12;69.80
79010;DHT22;73031;44.726;37.760;2024-01-30T04:07:45;4.10;69.45
79010;DHT22;73031;44.726;37.760;2024-01-30T04:08:47;4.10;69.69
79010;DHT22;73031;44.726;37.760;2024-01-30T04:09:48;4.13;69.38
79010;DHT22;73031;44.726;37.760;2024-01-30T04:10:49;4.13;69.10
79010;DHT22;73031;44.726;37.760;2024-01-30T04:11:50;4.16;68.81
79010;DHT22;73031;44.726;37.760;2024-01-30T04:12:52;4.13;68.74
79010;DHT22;73031;44.726;37.760;2024-01-30T04:13:54;4.13;68.72
79010;DHT22;73031;44.726;37.760;2024-01-30T04:14:56;4.12;68.47
79010;DHT22;73031;44.726;37.760;2024-01-30T04:16:02;4.15;68.68
79010;DHT22;73031;44.726;37.760;2024-01-30T04:17:03;4.13;68.60
79010;DHT22;73031;44.726;37.760;2024-01-30T04:18:05;4.13;68.62
79010;DHT22;73031;44.726;37.760;2024-01-30T04:19:06;4.13;68.71
79010;DHT22;73031;44.726;37.760;2024-01-30T04:20:12;4.13;68.64
79010;DHT22;73031;44.726;37.760;2024-01-30T04:21:14;4.16;68.47
79010;DHT22;73031;44.726;37.760;2024-01-30T04:22:15;4.16;68.51
79010;DHT22;73031;44.726;37.760;2024-01-30T04:23:17;4.13;68.39
79010;DHT22;73031;44.726;37.760;2024-01-30T04:24:18;4.12;68.24
79010;DHT22;73031;44.726;37.760;2024-01-30T04:25:19;4.12;68.62
79010;DHT22;73031;44.726;37.760;2024-01-30T04:26:21;4.13;68.68
79010;DHT22;73031;44.726;37.760;2024-01-30T04:27:24;4.15;68.51
79010;DHT22;73031;44.726;37.760;2024-01-30T04:28:25;4.12;68.36
79010;DHT22;73031;44.726;37.760;2024-01-30T04:29:26;4.10;68.29
79010;DHT22;73031;44.726;37.760;2024-01-30T04:30:28;4.10;68.29
79010;DHT22;73031;44.726;37.760;2024-01-30T04:31:29;4.10;68.32
79010;DHT22;73031;44.726;37.760;2024-01-30T04:32:31;4.12;68.55
79010;DHT22;73031;44.726;37.760;2024-01-30T04:33:32;4.15;68.58
79010;DHT22;73031;44.726;37.760;2024-01-30T04:34:34;4.13;68.57
79010;DHT22;73031;44.726;37.760;2024-01-30T04:35:36;4.12;68.50
79010;DHT22;73031;44.726;37.760;2024-01-30T04:36:37;4.12;68.52
79010;DHT22;73031;44.726;37.760;2024-01-30T04:37:38;4.13;68.39
79010;DHT22;73031;44.726;37.760;2024-01-30T04:38:39;4.13;68.26
79010;DHT22;73031;44.726;37.760;2024-01-30T04:39:41;4.12;68.27
79010;DHT22;73031;44.726;37.760;2024-01-30T04:40:42;4.13;68.09
79010;DHT22;73031;44.726;37.760;2024-01-30T04:41:43;4.10;68.43
79010;DHT22;73031;44.726;37.760;2024-01-30T04:42:45;4.15;68.25
79010;DHT22;73031;44.726;37.760;2024-01-30T04:43:46;4.13;68.26
79010;DHT22;73031;44.726;37.760;2024-01-30T04:44:47;4.13;68.18
79010;DHT22;73031;44.726;37.760;2024-01-30T04:45:49;4.15;68.16
79010;DHT22;73031;44.726;37.760;2024-01-30T04:46:51;4.13;68.19
79010;DHT22;73031;44.726;37.760;2024-01-30T04:47:52;4.16;68.26
79010;DHT22;73031;44.726;37.760;2024-01-30T04:48:53;4.19;68.17
79010;DHT22;73031;44.726;37.760;2024-01-30T04:49:55;4.17;68.21
79010;DHT22;73031;44.726;37.760;2024-01-30T04:50:56;4.15;68.06
79010;DHT22;73031;44.726;37.760;2024-01-30T04:51:57;4.17;68.24
79010;DHT22;73031;44.726;37.760;2024-01-30T04:52:59;4.15;68.05
79010;DHT22;73031;44.726;37.760;2024-01-30T04:54:01;4.13;68.10
79010;DHT22;73031;44.726;37.760;2024-01-30T04:55:02;4.16;68.15
79010;DHT22;73031;44.726;37.760;2024-01-30T04:56:05;4.15;67.91
79010;DHT22;73031;44.726;37.760;2024-01-30T04:57:06;4.15;68.09
79010;DHT22;73031;44.726;37.760;2024-01-30T04:58:10;4.13;68.17
79010;DHT22;73031;44.726;37.760;2024-01-30T04:59:12;4.15;68.20
79010;DHT22;73031;44.726;37.760;2024-01-30T05:00:13;4.15;68.03
79010;DHT22;73031;44.726;37.760;2024-01-30T05:01:15;4.16;68.20
79010;DHT22;73031;44.726;37.760;2024-01-30T05:02:17;4.17;68.23
79010;DHT22;73031;44.726;37.760;2024-01-30T05:03:20;4.17;68.26
79010;DHT22;73031;44.726;37.760;2024-01-30T05:04:23;4.16;68.12
79010;DHT22;73031;44.726;37.760;2024-01-30T05:05:24;4.19;68.29
79010;DHT22;73031;44.726;37.760;2024-01-30T05:06:26;4.17;68.47
79010;DHT22;73031;44.726;37.760;2024-01-30T05:07:28;4.19;68.40
79010;DHT22;73031;44.726;37.760;2024-01-30T05:08:29;4.22;68.45
79010;DHT22;73031;44.726;37.760;2024-01-30T05:09:31;4.22;68.57
79010;DHT22;73031;44.726;37.760;2024-01-30T05:10:32;4.22;68.59
79010;DHT22;73031;44.726;37.760;2024-01-30T05:11:40;4.23;68.67
79010;DHT22;73031;44.726;37.760;2024-01-30T05:12:41;4.23;68.73
79010;DHT22;73031;44.726;37.760;2024-01-30T05:13:42;4.26;68.88
79010;DHT22;73031;44.726;37.760;2024-01-30T05:14:44;4.24;68.62
79010;DHT22;73031;44.726;37.760;2024-01-30T05:15:45;4.24;68.72
79010;DHT22;73031;44.726;37.760;2024-01-30T05:16:50;4.29;68.73
79010;DHT22;73031;44.726;37.760;2024-01-30T05:17:51;4.29;68.75
79010;DHT22;73031;44.726;37.760;2024-01-30T05:18:52;4.30;68.54
79010;DHT22;73031;44.726;37.760;2024-01-30T05:19:54;4.28;68.64
79010;DHT22;73031;44.726;37.760;2024-01-30T05:20:55;4.32;68.73
79010;DHT22;73031;44.726;37.760;2024-01-30T05:21:56;4.36;68.95
79010;DHT22;73031;44.726;37.760;2024-01-30T05:22:58;4.40;68.85
79010;DHT22;73031;44.726;37.760;2024-01-30T05:23:59;4.43;68.85
79010;DHT22;73031;44.726;37.760;2024-01-30T05:25:01;4.53;69.10
79010;DHT22;73031;44.726;37.760;2024-01-30T05:26:02;4.54;69.42
79010;DHT22;73031;44.726;37.760;2024-01-30T05:27:04;4.62;69.63
79010;DHT22;73031;44.726;37.760;2024-01-30T05:28:05;4.72;69.81
79010;DHT22;73031;44.726;37.760;2024-01-30T05:29:07;4.78;70.08
79010;DHT22;73031;44.726;37.760;2024-01-30T05:30:09;4.88;70.45
79010;DHT22;73031;44.726;37.760;2024-01-30T05:31:10;4.96;70.87
79010;DHT22;73031;44.726;37.760;2024-01-30T05:32:12;5.06;71.27
79010;DHT22;73031;44.726;37.760;2024-01-30T05:33:13;5.16;71.47
79010;DHT22;73031;44.726;37.760;2024-01-30T05:34:14;5.27;71.80
79010;DHT22;73031;44.726;37.760;2024-01-30T05:35:16;5.33;71.91
79010;DHT22;73031;44.726;37.760;2024-01-30T05:36:17;5.46;72.05
79010;DHT22;73031;44.726;37.760;2024-01-30T05:37:18;5.55;72.23
79010;DHT22;73031;44.726;37.760;2024-01-30T05:38:20;5.65;72.44
79010;DHT22;73031;44.726;37.760;2024-01-30T05:39:21;5.77;72.72
79010;DHT22;73031;44.726;37.760;2024-01-30T05:40:22;5.85;73.13
79010;DHT22;73031;44.726;37.760;2024-01-30T05:41:24;5.99;73.55
79010;DHT22;73031;44.726;37.760;2024-01-30T05:42:27;6.12;73.89
79010;DHT22;73031;44.726;37.760;2024-01-30T05:43:28;6.24;74.44
79010;DHT22;73031;44.726;37.760;2024-01-30T05:44:29;6.37;74.81
79010;DHT22;73031;44.726;37.760;2024-01-30T05:45:31;6.50;75.17
79010;DHT22;73031;44.726;37.760;2024-01-30T05:46:33;6.55;75.33
79010;DHT22;73031;44.726;37.760;2024-01-30T05:47:35;6.64;75.13
79010;DHT22;73031;44.726;37.760;2024-01-30T05:48:36;6.74;74.88
79010;DHT22;73031;44.726;37.760;2024-01-30T05:49:37;6.81;74.54
79010;DHT22;73031;44.726;37.760;2024-01-30T05:50:40;6.92;74.38
79010;DHT22;73031;44.726;37.760;2024-01-30T05:51:41;7.05;74.32
79010;DHT22;73031;44.726;37.760;2024-01-30T05:52:42;7.16;74.53
79010;DHT22;73031;44.726;37.760;2024-01-30T05:53:44;7.34;74.46
79010;DHT22;73031;44.726;37.760;2024-01-30T05:54:45;7.51;74.78
79010;DHT22;73031;44.726;37.760;2024-01-30T05:55:46;7.68;75.10
79010;DHT22;73031;44.726;37.760;2024-01-30T05:56:48;7.85;75.51
79010;DHT22;73031;44.726;37.760;2024-01-30T05:57:49;8.05;75.89
79010;DHT22;73031;44.726;37.760;2024-01-30T05:58:51;8.24;76.16
79010;DHT22;73031;44.726;37.760;2024-01-30T05:59:53;8.48;76.51
79010;DHT22;73031;44.726;37.760;2024-01-30T06:00:54;8.68;76.03
79010;DHT22;73031;44.726;37.760;2024-01-30T06:01:55;8.87;75.73
79010;DHT22;73031;44.726;37.760;2024-01-30T06:02:57;9.00;75.68
79010;DHT22;73031;44.726;37.760;2024-01-30T06:03:58;9.14;75.14
79010;DHT22;73031;44.726;37.760;2024-01-30T06:04:59;9.28;75.02
79010;DHT22;73031;44.726;37.760;2024-01-30T06:06:01;9.45;75.06
79010;DHT22;73031;44.726;37.760;2024-01-30T06:07:02;9.65;75.10
79010;DHT22;73031;44.726;37.760;2024-01-30T06:08:04;9.83;75.06
79010;DHT22;73031;44.726;37.760;2024-01-30T06:09:05;10.03;75.36
79010;DHT22;73031;44.726;37.760;2024-01-30T06:10:09;10.23;75.69
79010;DHT22;73031;44.726;37.760;2024-01-30T06:11:11;10.44;74.88
79010;DHT22;73031;44.726;37.760;2024-01-30T06:12:13;10.64;75.16
79010;DHT22;73031;44.726;37.760;2024-01-30T06:13:14;10.83;75.29
79010;DHT22;73031;44.726;37.760;2024-01-30T06:14:16;11.04;74.86
79010;DHT22;73031;44.726;37.760;2024-01-30T06:15:17;11.24;74.90
79010;DHT22;73031;44.726;37.760;2024-01-30T06:16:19;11.48;74.47
79010;DHT22;73031;44.726;37.760;2024-01-30T06:17:22;11.69;74.54
79010;DHT22;73031;44.726;37.760;2024-01-30T06:18:24;11.96;74.30
79010;DHT22;73031;44.726;37.760;2024-01-30T06:19:25;12.20;74.23
79010;DHT22;73031;44.726;37.760;2024-01-30T06:20:27;12.30;74.20
79010;DHT22;73031;44.726;37.760;2024-01-30T06:21:28;12.37;74.26
79010;DHT22;73031;44.726;37.760;2024-01-30T06:22:30;12.41;73.34
79010;DHT22;73031;44.726;37.760;2024-01-30T06:23:31;12.45;73.31
79010;DHT22;73031;44.726;37.760;2024-01-30T06:24:33;12.47;72.79
79010;DHT22;73031;44.726;37.760;2024-01-30T06:25:35;12.47;72.29
79010;DHT22;73031;44.726;37.760;2024-01-30T06:26:37;12.52;71.29
79010;DHT22;73031;44.726;37.760;2024-01-30T06:27:38;12.57;70.95
79010;DHT22;73031;44.726;37.760;2024-01-30T06:28:40;12.54;70.89
79010;DHT22;73031;44.726;37.760;2024-01-30T06:29:43;12.54;70.50